sensor_id;sensor_type;location;lat;lon;timestamp;temperature;humidity
75161;DHT22;67232;50.096;8.716;2023-07-20T00:00:53;24.10;52.00
75161;DHT22;67232;50.096;8.716;2023-07-20T00:03:20;24.10;52.10
75161;DHT22;67232;50.096;8.716;2023-07-20T00:05:49;24.10;52.00
75161;DHT22;67232;50.096;8.716;2023-07-20T00:08:15;24.20;52.10
75161;DHT22;67232;50.096;8.716;2023-07-20T00:10:43;24.10;52.10
75161;DHT22;67232;50.096;8.716;2023-07-20T00:13:13;24.00;52.50
75161;DHT22;67232;50.096;8.716;2023-07-20T00:15:41;24.00;52.50
75161;DHT22;67232;50.096;8.716;2023-07-20T00:18:07;24.00;52.60
75161;DHT22;67232;50.096;8.716;2023-07-20T00:20:32;24.00;52.60
75161;DHT22;67232;50.096;8.716;2023-07-20T00:22:58;24.00;52.60
75161;DHT22;67232;50.096;8.716;2023-07-20T00:25:24;23.90;52.80
75161;DHT22;67232;50.096;8.716;2023-07-20T00:27:50;24.00;52.90
75161;DHT22;67232;50.096;8.716;2023-07-20T00:30:16;24.00;52.90
75161;DHT22;67232;50.096;8.716;2023-07-20T00:32:44;24.00;52.80
75161;DHT22;67232;50.096;8.716;2023-07-20T00:35:12;23.90;53.00
75161;DHT22;67232;50.096;8.716;2023-07-20T00:37:41;23.90;53.10
75161;DHT22;67232;50.096;8.716;2023-07-20T00:40:06;23.90;53.20
75161;DHT22;67232;50.096;8.716;2023-07-20T00:42:35;23.90;53.10
75161;DHT22;67232;50.096;8.716;2023-07-20T00:45:00;23.90;53.20
75161;DHT22;67232;50.096;8.716;2023-07-20T00:47:27;23.80;53.30
75161;DHT22;67232;50.096;8.716;2023-07-20T00:49:53;23.80;53.60
75161;DHT22;67232;50.096;8.716;2023-07-20T00:52:23;23.80;53.70
75161;DHT22;67232;50.096;8.716;2023-07-20T00:54:49;23.70;53.80
75161;DHT22;67232;50.096;8.716;2023-07-20T00:57:15;23.80;53.70
75161;DHT22;67232;50.096;8.716;2023-07-20T00:59:43;23.70;53.90
75161;DHT22;67232;50.096;8.716;2023-07-20T01:02:08;23.60;54.10
75161;DHT22;67232;50.096;8.716;2023-07-20T01:04:36;23.60;54.40
75161;DHT22;67232;50.096;8.716;2023-07-20T01:07:22;23.60;54.70
75161;DHT22;67232;50.096;8.716;2023-07-20T01:10:03;23.50;55.10
75161;DHT22;67232;50.096;8.716;2023-07-20T01:12:47;23.50;55.20
75161;DHT22;67232;50.096;8.716;2023-07-20T01:15:14;23.40;55.40
75161;DHT22;67232;50.096;8.716;2023-07-20T01:17:40;23.30;55.50
75161;DHT22;67232;50.096;8.716;2023-07-20T01:20:08;23.30;55.60
75161;DHT22;67232;50.096;8.716;2023-07-20T01:29:17;23.20;56.00
75161;DHT22;67232;50.096;8.716;2023-07-20T01:31:44;23.10;56.20
75161;DHT22;67232;50.096;8.716;2023-07-20T01:34:12;23.00;56.40
75161;DHT22;67232;50.096;8.716;2023-07-20T01:36:40;23.10;56.10
75161;DHT22;67232;50.096;8.716;2023-07-20T01:39:08;23.00;56.50
75161;DHT22;67232;50.096;8.716;2023-07-20T01:41:36;23.00;56.50
75161;DHT22;67232;50.096;8.716;2023-07-20T01:44:03;23.00;56.40
75161;DHT22;67232;50.096;8.716;2023-07-20T01:46:29;23.00;56.50
75161;DHT22;67232;50.096;8.716;2023-07-20T01:48:57;22.90;56.50
75161;DHT22;67232;50.096;8.716;2023-07-20T01:51:23;22.90;56.80
75161;DHT22;67232;50.096;8.716;2023-07-20T01:53:51;22.90;56.70
75161;DHT22;67232;50.096;8.716;2023-07-20T01:56:18;22.80;57.00
75161;DHT22;67232;50.096;8.716;2023-07-20T01:58:44;22.70;57.20
75161;DHT22;67232;50.096;8.716;2023-07-20T02:01:12;22.70;57.50
75161;DHT22;67232;50.096;8.716;2023-07-20T02:03:40;22.70;57.50
75161;DHT22;67232;50.096;8.716;2023-07-20T02:06:05;22.60;57.70
75161;DHT22;67232;50.096;8.716;2023-07-20T02:08:33;22.60;57.80
75161;DHT22;67232;50.096;8.716;2023-07-20T02:10:59;22.60;57.80
75161;DHT22;67232;50.096;8.716;2023-07-20T02:13:24;22.60;57.80
75161;DHT22;67232;50.096;8.716;2023-07-20T02:15:50;22.50;58.00
75161;DHT22;67232;50.096;8.716;2023-07-20T02:18:18;22.50;58.10
75161;DHT22;67232;50.096;8.716;2023-07-20T02:20:46;22.50;58.20
75161;DHT22;67232;50.096;8.716;2023-07-20T02:23:12;22.50;58.20
75161;DHT22;67232;50.096;8.716;2023-07-20T02:25:40;22.50;58.10
75161;DHT22;67232;50.096;8.716;2023-07-20T02:28:07;22.40;58.30
75161;DHT22;67232;50.096;8.716;2023-07-20T02:30:34;22.40;58.40
75161;DHT22;67232;50.096;8.716;2023-07-20T02:32:59;22.50;58.40
75161;DHT22;67232;50.096;8.716;2023-07-20T02:35:25;22.50;58.50
75161;DHT22;67232;50.096;8.716;2023-07-20T02:37:53;22.50;58.20
75161;DHT22;67232;50.096;8.716;2023-07-20T02:40:21;22.40;58.50
75161;DHT22;67232;50.096;8.716;2023-07-20T02:42:47;22.40;58.40
75161;DHT22;67232;50.096;8.716;2023-07-20T02:45:12;22.30;58.60
75161;DHT22;67232;50.096;8.716;2023-07-20T02:47:38;22.40;58.70
75161;DHT22;67232;50.096;8.716;2023-07-20T02:50:08;22.40;58.60
75161;DHT22;67232;50.096;8.716;2023-07-20T02:52:34;22.40;58.30
75161;DHT22;67232;50.096;8.716;2023-07-20T02:55:02;22.30;58.60
75161;DHT22;67232;50.096;8.716;2023-07-20T02:57:27;22.30;58.70
75161;DHT22;67232;50.096;8.716;2023-07-20T02:59:55;22.30;58.70
75161;DHT22;67232;50.096;8.716;2023-07-20T03:02:21;22.40;58.50
75161;DHT22;67232;50.096;8.716;2023-07-20T03:04:46;22.20;58.40
75161;DHT22;67232;50.096;8.716;2023-07-20T03:07:12;22.20;58.80
75161;DHT22;67232;50.096;8.716;2023-07-20T03:09:38;22.10;58.70
75161;DHT22;67232;50.096;8.716;2023-07-20T03:12:03;22.10;58.70
75161;DHT22;67232;50.096;8.716;2023-07-20T03:14:30;22.10;58.80
75161;DHT22;67232;50.096;8.716;2023-07-20T03:16:58;22.10;58.80
75161;DHT22;67232;50.096;8.716;2023-07-20T03:19:23;22.00;59.00
75161;DHT22;67232;50.096;8.716;2023-07-20T03:21:49;22.10;58.80
75161;DHT22;67232;50.096;8.716;2023-07-20T03:24:14;22.00;58.80
75161;DHT22;67232;50.096;8.716;2023-07-20T03:26:40;22.00;58.80
75161;DHT22;67232;50.096;8.716;2023-07-20T03:29:05;22.00;59.00
75161;DHT22;67232;50.096;8.716;2023-07-20T03:31:32;22.00;59.00
75161;DHT22;67232;50.096;8.716;2023-07-20T03:33:57;22.00;59.20
75161;DHT22;67232;50.096;8.716;2023-07-20T03:36:23;22.00;59.10
75161;DHT22;67232;50.096;8.716;2023-07-20T03:38:48;22.10;59.00
75161;DHT22;67232;50.096;8.716;2023-07-20T03:41:16;22.10;58.70
75161;DHT22;67232;50.096;8.716;2023-07-20T03:43:44;22.10;59.00
75161;DHT22;67232;50.096;8.716;2023-07-20T03:46:12;22.10;58.90
75161;DHT22;67232;50.096;8.716;2023-07-20T03:48:42;22.00;59.10
75161;DHT22;67232;50.096;8.716;2023-07-20T03:51:08;22.10;59.10
75161;DHT22;67232;50.096;8.716;2023-07-20T03:53:33;22.00;59.20
75161;DHT22;67232;50.096;8.716;2023-07-20T03:55:59;22.00;59.30
75161;DHT22;67232;50.096;8.716;2023-07-20T03:58:25;22.10;59.30
75161;DHT22;67232;50.096;8.716;2023-07-20T04:00:51;22.10;59.10
75161;DHT22;67232;50.096;8.716;2023-07-20T04:03:19;22.00;59.20
75161;DHT22;67232;50.096;8.716;2023-07-20T04:05:48;21.90;59.40
75161;DHT22;67232;50.096;8.716;2023-07-20T04:08:13;22.00;59.30
75161;DHT22;67232;50.096;8.716;2023-07-20T04:10:39;21.90;59.50
75161;DHT22;67232;50.096;8.716;2023-07-20T04:13:08;21.90;59.50
75161;DHT22;67232;50.096;8.716;2023-07-20T04:15:33;21.80;59.50
75161;DHT22;67232;50.096;8.716;2023-07-20T04:17:59;21.80;59.60
75161;DHT22;67232;50.096;8.716;2023-07-20T04:20:26;21.90;59.30
75161;DHT22;67232;50.096;8.716;2023-07-20T04:22:54;21.80;59.50
75161;DHT22;67232;50.096;8.716;2023-07-20T04:25:22;21.80;59.50
75161;DHT22;67232;50.096;8.716;2023-07-20T04:27:48;21.80;59.30
75161;DHT22;67232;50.096;8.716;2023-07-20T04:30:17;21.60;59.60
75161;DHT22;67232;50.096;8.716;2023-07-20T04:32:45;21.60;59.70
75161;DHT22;67232;50.096;8.716;2023-07-20T04:38:06;21.50;59.90
75161;DHT22;67232;50.096;8.716;2023-07-20T04:40:32;21.40;60.20
75161;DHT22;67232;50.096;8.716;2023-07-20T04:42:57;21.40;60.30
75161;DHT22;67232;50.096;8.716;2023-07-20T04:45:22;21.20;60.60
75161;DHT22;67232;50.096;8.716;2023-07-20T04:47:49;21.10;60.80
75161;DHT22;67232;50.096;8.716;2023-07-20T04:50:18;21.20;60.80
75161;DHT22;67232;50.096;8.716;2023-07-20T04:52:44;21.30;60.60
75161;DHT22;67232;50.096;8.716;2023-07-20T04:55:11;21.20;60.60
75161;DHT22;67232;50.096;8.716;2023-07-20T04:57:39;21.20;60.80
75161;DHT22;67232;50.096;8.716;2023-07-20T05:00:05;21.20;61.00
75161;DHT22;67232;50.096;8.716;2023-07-20T05:02:31;21.20;60.90
75161;DHT22;67232;50.096;8.716;2023-07-20T05:04:59;21.10;61.20
75161;DHT22;67232;50.096;8.716;2023-07-20T05:07:27;21.10;61.20
75161;DHT22;67232;50.096;8.716;2023-07-20T05:09:53;21.00;61.50
75161;DHT22;67232;50.096;8.716;2023-07-20T05:12:18;21.10;61.30
75161;DHT22;67232;50.096;8.716;2023-07-20T05:14:44;21.30;61.30
75161;DHT22;67232;50.096;8.716;2023-07-20T05:17:09;21.40;60.90
75161;DHT22;67232;50.096;8.716;2023-07-20T05:19:35;21.60;60.80
75161;DHT22;67232;50.096;8.716;2023-07-20T05:22:00;21.50;60.60
75161;DHT22;67232;50.096;8.716;2023-07-20T05:24:26;21.50;60.80
75161;DHT22;67232;50.096;8.716;2023-07-20T05:26:51;21.60;60.70
75161;DHT22;67232;50.096;8.716;2023-07-20T05:29:17;21.60;60.90
75161;DHT22;67232;50.096;8.716;2023-07-20T05:31:44;21.60;61.10
75161;DHT22;67232;50.096;8.716;2023-07-20T05:34:12;21.60;61.00
75161;DHT22;67232;50.096;8.716;2023-07-20T05:36:38;21.60;61.20
75161;DHT22;67232;50.096;8.716;2023-07-20T05:39:03;21.70;61.00
75161;DHT22;67232;50.096;8.716;2023-07-20T05:41:29;21.80;60.90
75161;DHT22;67232;50.096;8.716;2023-07-20T05:43:54;21.80;60.60
75161;DHT22;67232;50.096;8.716;2023-07-20T05:46:22;21.80;60.50
75161;DHT22;67232;50.096;8.716;2023-07-20T05:48:49;21.80;60.90
75161;DHT22;67232;50.096;8.716;2023-07-20T05:51:15;21.80;61.10
75161;DHT22;67232;50.096;8.716;2023-07-20T05:53:43;21.90;60.60
75161;DHT22;67232;50.096;8.716;2023-07-20T05:56:08;22.00;60.40
75161;DHT22;67232;50.096;8.716;2023-07-20T05:58:37;22.10;60.20
75161;DHT22;67232;50.096;8.716;2023-07-20T06:01:04;22.10;60.10
75161;DHT22;67232;50.096;8.716;2023-07-20T06:03:32;22.10;60.30
75161;DHT22;67232;50.096;8.716;2023-07-20T06:06:00;22.30;60.30
75161;DHT22;67232;50.096;8.716;2023-07-20T06:08:30;22.30;59.60
75161;DHT22;67232;50.096;8.716;2023-07-20T06:10:57;22.30;60.10
75161;DHT22;67232;50.096;8.716;2023-07-20T06:13:22;22.40;60.10
75161;DHT22;67232;50.096;8.716;2023-07-20T06:15:48;22.40;60.10
75161;DHT22;67232;50.096;8.716;2023-07-20T06:18:16;22.60;59.70
75161;DHT22;67232;50.096;8.716;2023-07-20T06:20:42;22.80;59.00
75161;DHT22;67232;50.096;8.716;2023-07-20T06:23:08;22.80;59.00
75161;DHT22;67232;50.096;8.716;2023-07-20T06:25:33;22.70;59.20
75161;DHT22;67232;50.096;8.716;2023-07-20T06:27:59;22.80;59.80
75161;DHT22;67232;50.096;8.716;2023-07-20T06:30:24;22.90;59.20
75161;DHT22;67232;50.096;8.716;2023-07-20T06:32:50;22.90;59.00
75161;DHT22;67232;50.096;8.716;2023-07-20T06:35:17;23.00;59.00
75161;DHT22;67232;50.096;8.716;2023-07-20T06:37:45;22.90;59.50
75161;DHT22;67232;50.096;8.716;2023-07-20T06:40:13;23.10;59.40
75161;DHT22;67232;50.096;8.716;2023-07-20T06:42:39;23.20;59.20
75161;DHT22;67232;50.096;8.716;2023-07-20T06:45:09;23.20;58.80
75161;DHT22;67232;50.096;8.716;2023-07-20T06:47:35;23.30;58.60
75161;DHT22;67232;50.096;8.716;2023-07-20T06:50:00;23.30;58.80
75161;DHT22;67232;50.096;8.716;2023-07-20T06:52:26;23.30;58.50
75161;DHT22;67232;50.096;8.716;2023-07-20T06:54:51;23.10;58.40
75161;DHT22;67232;50.096;8.716;2023-07-20T06:57:19;23.10;58.90
75161;DHT22;67232;50.096;8.716;2023-07-20T06:59:45;23.20;58.50
75161;DHT22;67232;50.096;8.716;2023-07-20T07:02:10;23.30;58.40
75161;DHT22;67232;50.096;8.716;2023-07-20T07:04:36;23.50;57.90
75161;DHT22;67232;50.096;8.716;2023-07-20T07:07:04;23.40;57.90
75161;DHT22;67232;50.096;8.716;2023-07-20T07:09:29;23.50;57.60
75161;DHT22;67232;50.096;8.716;2023-07-20T07:11:55;23.70;56.50
75161;DHT22;67232;50.096;8.716;2023-07-20T07:14:20;23.70;56.60
75161;DHT22;67232;50.096;8.716;2023-07-20T07:16:47;23.70;56.90
75161;DHT22;67232;50.096;8.716;2023-07-20T07:19:13;23.70;56.90
75161;DHT22;67232;50.096;8.716;2023-07-20T07:21:41;23.80;56.40
75161;DHT22;67232;50.096;8.716;2023-07-20T07:24:06;23.90;56.10
75161;DHT22;67232;50.096;8.716;2023-07-20T07:26:33;23.90;56.20
75161;DHT22;67232;50.096;8.716;2023-07-20T07:28:59;23.90;56.40
75161;DHT22;67232;50.096;8.716;2023-07-20T07:31:29;23.70;56.60
75161;DHT22;67232;50.096;8.716;2023-07-20T07:33:55;23.80;56.90
75161;DHT22;67232;50.096;8.716;2023-07-20T07:36:21;23.80;56.50
75161;DHT22;67232;50.096;8.716;2023-07-20T07:38:47;23.80;56.80
75161;DHT22;67232;50.096;8.716;2023-07-20T07:41:13;23.90;56.60
75161;DHT22;67232;50.096;8.716;2023-07-20T07:43:41;24.00;56.70
75161;DHT22;67232;50.096;8.716;2023-07-20T07:46:07;24.10;56.30
75161;DHT22;67232;50.096;8.716;2023-07-20T07:48:32;24.20;56.00
75161;DHT22;67232;50.096;8.716;2023-07-20T07:50:58;24.10;56.10
75161;DHT22;67232;50.096;8.716;2023-07-20T07:53:23;24.20;56.20
75161;DHT22;67232;50.096;8.716;2023-07-20T07:55:51;24.20;56.20
75161;DHT22;67232;50.096;8.716;2023-07-20T07:58:17;24.30;56.20
75161;DHT22;67232;50.096;8.716;2023-07-20T08:00:45;24.20;55.80
75161;DHT22;67232;50.096;8.716;2023-07-20T08:03:13;24.30;56.00
75161;DHT22;67232;50.096;8.716;2023-07-20T08:05:39;24.30;55.60
75161;DHT22;67232;50.096;8.716;2023-07-20T08:08:05;24.40;55.60
75161;DHT22;67232;50.096;8.716;2023-07-20T08:10:31;24.60;54.70
75161;DHT22;67232;50.096;8.716;2023-07-20T08:12:57;24.60;54.50
75161;DHT22;67232;50.096;8.716;2023-07-20T08:15:25;24.60;54.80
75161;DHT22;67232;50.096;8.716;2023-07-20T08:17:50;24.60;54.70
75161;DHT22;67232;50.096;8.716;2023-07-20T08:20:17;24.60;55.20
75161;DHT22;67232;50.096;8.716;2023-07-20T08:22:43;24.60;54.60
75161;DHT22;67232;50.096;8.716;2023-07-20T08:25:09;24.60;54.90
75161;DHT22;67232;50.096;8.716;2023-07-20T08:27:35;24.80;54.70
75161;DHT22;67232;50.096;8.716;2023-07-20T08:30:01;24.90;53.90
75161;DHT22;67232;50.096;8.716;2023-07-20T08:32:27;25.10;53.50
75161;DHT22;67232;50.096;8.716;2023-07-20T08:34:53;25.00;53.20
75161;DHT22;67232;50.096;8.716;2023-07-20T08:37:19;25.00;53.40
75161;DHT22;67232;50.096;8.716;2023-07-20T08:39:45;25.10;53.10
75161;DHT22;67232;50.096;8.716;2023-07-20T08:42:14;25.20;53.30
75161;DHT22;67232;50.096;8.716;2023-07-20T08:44:41;25.40;52.20
75161;DHT22;67232;50.096;8.716;2023-07-20T08:47:09;25.40;52.20
75161;DHT22;67232;50.096;8.716;2023-07-20T08:49:35;25.60;52.20
75161;DHT22;67232;50.096;8.716;2023-07-20T08:52:02;25.50;52.60
75161;DHT22;67232;50.096;8.716;2023-07-20T08:54:31;25.70;52.30
75161;DHT22;67232;50.096;8.716;2023-07-20T08:57:02;25.70;51.60
75161;DHT22;67232;50.096;8.716;2023-07-20T08:59:29;25.70;51.30
75161;DHT22;67232;50.096;8.716;2023-07-20T09:01:56;25.60;51.80
75161;DHT22;67232;50.096;8.716;2023-07-20T09:04:25;25.50;52.30
75161;DHT22;67232;50.096;8.716;2023-07-20T09:06:51;25.60;52.10
75161;DHT22;67232;50.096;8.716;2023-07-20T09:09:17;25.40;52.40
75161;DHT22;67232;50.096;8.716;2023-07-20T09:11:47;25.40;52.20
75161;DHT22;67232;50.096;8.716;2023-07-20T09:14:13;25.40;51.40
75161;DHT22;67232;50.096;8.716;2023-07-20T09:16:53;25.60;52.30
75161;DHT22;67232;50.096;8.716;2023-07-20T09:19:20;25.70;51.70
75161;DHT22;67232;50.096;8.716;2023-07-20T09:21:51;25.70;51.90
75161;DHT22;67232;50.096;8.716;2023-07-20T09:24:20;25.70;51.40
75161;DHT22;67232;50.096;8.716;2023-07-20T09:26:48;25.80;51.20
75161;DHT22;67232;50.096;8.716;2023-07-20T09:29:20;26.00;50.90
75161;DHT22;67232;50.096;8.716;2023-07-20T09:32:02;26.20;50.80
75161;DHT22;67232;50.096;8.716;2023-07-20T09:34:29;26.30;50.60
75161;DHT22;67232;50.096;8.716;2023-07-20T09:36:56;26.30;50.40
75161;DHT22;67232;50.096;8.716;2023-07-20T09:39:22;26.20;50.30
75161;DHT22;67232;50.096;8.716;2023-07-20T09:41:47;26.10;50.50
75161;DHT22;67232;50.096;8.716;2023-07-20T09:44:14;25.90;51.00
75161;DHT22;67232;50.096;8.716;2023-07-20T09:46:50;25.80;50.60
75161;DHT22;67232;50.096;8.716;2023-07-20T09:49:17;25.50;50.60
75161;DHT22;67232;50.096;8.716;2023-07-20T09:51:45;25.30;50.90
75161;DHT22;67232;50.096;8.716;2023-07-20T09:54:11;25.20;51.30
75161;DHT22;67232;50.096;8.716;2023-07-20T09:56:39;25.00;51.80
75161;DHT22;67232;50.096;8.716;2023-07-20T09:59:06;24.90;51.90
75161;DHT22;67232;50.096;8.716;2023-07-20T10:01:34;24.90;52.40
75161;DHT22;67232;50.096;8.716;2023-07-20T10:04:03;24.90;52.20
75161;DHT22;67232;50.096;8.716;2023-07-20T10:06:34;24.80;52.30
75161;DHT22;67232;50.096;8.716;2023-07-20T10:09:03;24.80;52.30
75161;DHT22;67232;50.096;8.716;2023-07-20T10:11:35;24.80;53.10
75161;DHT22;67232;50.096;8.716;2023-07-20T10:14:03;24.90;52.70
75161;DHT22;67232;50.096;8.716;2023-07-20T10:16:35;25.00;52.40
75161;DHT22;67232;50.096;8.716;2023-07-20T10:19:07;25.30;52.50
75161;DHT22;67232;50.096;8.716;2023-07-20T10:21:51;25.60;51.90
75161;DHT22;67232;50.096;8.716;2023-07-20T10:24:21;25.70;52.30
75161;DHT22;67232;50.096;8.716;2023-07-20T10:26:47;25.80;51.80
75161;DHT22;67232;50.096;8.716;2023-07-20T10:29:13;25.70;51.80
75161;DHT22;67232;50.096;8.716;2023-07-20T10:31:42;25.70;51.40
75161;DHT22;67232;50.096;8.716;2023-07-20T10:34:10;25.60;51.60
75161;DHT22;67232;50.096;8.716;2023-07-20T10:36:44;25.70;51.10
75161;DHT22;67232;50.096;8.716;2023-07-20T10:39:27;25.70;50.50
75161;DHT22;67232;50.096;8.716;2023-07-20T10:44:26;26.10;50.80
75161;DHT22;67232;50.096;8.716;2023-07-20T10:46:59;26.30;49.40
75161;DHT22;67232;50.096;8.716;2023-07-20T10:49:28;26.30;49.60
75161;DHT22;67232;50.096;8.716;2023-07-20T10:51:59;26.40;48.90
75161;DHT22;67232;50.096;8.716;2023-07-20T10:56:55;26.30;48.60
75161;DHT22;67232;50.096;8.716;2023-07-20T11:01:59;26.00;49.80
75161;DHT22;67232;50.096;8.716;2023-07-20T11:04:43;26.00;49.80
75161;DHT22;67232;50.096;8.716;2023-07-20T11:07:09;26.00;49.90
75161;DHT22;67232;50.096;8.716;2023-07-20T11:09:37;26.10;49.60
75161;DHT22;67232;50.096;8.716;2023-07-20T11:12:15;26.20;49.60
75161;DHT22;67232;50.096;8.716;2023-07-20T11:14:42;26.40;48.80
75161;DHT22;67232;50.096;8.716;2023-07-20T11:17:15;26.70;48.20
75161;DHT22;67232;50.096;8.716;2023-07-20T11:19:48;26.60;48.10
75161;DHT22;67232;50.096;8.716;2023-07-20T11:22:16;26.40;48.10
75161;DHT22;67232;50.096;8.716;2023-07-20T11:24:45;26.40;48.20
75161;DHT22;67232;50.096;8.716;2023-07-20T11:27:11;26.50;47.80
75161;DHT22;67232;50.096;8.716;2023-07-20T11:29:37;26.30;47.60
75161;DHT22;67232;50.096;8.716;2023-07-20T11:32:03;26.20;48.70
75161;DHT22;67232;50.096;8.716;2023-07-20T11:34:30;26.20;48.50
75161;DHT22;67232;50.096;8.716;2023-07-20T11:37:00;26.20;49.10
75161;DHT22;67232;50.096;8.716;2023-07-20T11:39:26;26.30;48.50
75161;DHT22;67232;50.096;8.716;2023-07-20T11:41:53;26.70;47.60
75161;DHT22;67232;50.096;8.716;2023-07-20T11:44:23;26.70;47.90
75161;DHT22;67232;50.096;8.716;2023-07-20T11:47:17;26.90;47.80
75161;DHT22;67232;50.096;8.716;2023-07-20T11:49:48;26.90;47.10
75161;DHT22;67232;50.096;8.716;2023-07-20T11:52:19;26.90;47.20
75161;DHT22;67232;50.096;8.716;2023-07-20T11:54:46;26.70;47.40
75161;DHT22;67232;50.096;8.716;2023-07-20T11:57:19;26.60;47.90
75161;DHT22;67232;50.096;8.716;2023-07-20T11:59:58;26.70;47.90
75161;DHT22;67232;50.096;8.716;2023-07-20T12:02:30;26.60;47.50
75161;DHT22;67232;50.096;8.716;2023-07-20T12:04:56;26.60;47.40
75161;DHT22;67232;50.096;8.716;2023-07-20T12:07:27;26.70;47.80
75161;DHT22;67232;50.096;8.716;2023-07-20T12:10:09;26.40;47.00
75161;DHT22;67232;50.096;8.716;2023-07-20T12:12:41;26.50;47.90
75161;DHT22;67232;50.096;8.716;2023-07-20T12:15:17;26.40;47.60
75161;DHT22;67232;50.096;8.716;2023-07-20T12:17:45;26.40;47.60
75161;DHT22;67232;50.096;8.716;2023-07-20T12:20:12;26.60;47.60
75161;DHT22;67232;50.096;8.716;2023-07-20T12:22:43;26.70;47.10
75161;DHT22;67232;50.096;8.716;2023-07-20T12:25:09;26.70;46.50
75161;DHT22;67232;50.096;8.716;2023-07-20T12:27:37;26.80;46.40
75161;DHT22;67232;50.096;8.716;2023-07-20T12:30:05;26.80;46.70
75161;DHT22;67232;50.096;8.716;2023-07-20T12:32:31;26.70;46.90
75161;DHT22;67232;50.096;8.716;2023-07-20T12:34:57;26.70;47.50
75161;DHT22;67232;50.096;8.716;2023-07-20T12:37:22;26.80;47.20
75161;DHT22;67232;50.096;8.716;2023-07-20T12:39:48;26.70;47.20
75161;DHT22;67232;50.096;8.716;2023-07-20T12:42:14;26.60;47.40
75161;DHT22;67232;50.096;8.716;2023-07-20T12:44:44;26.50;47.70
75161;DHT22;67232;50.096;8.716;2023-07-20T12:47:10;26.50;48.20
75161;DHT22;67232;50.096;8.716;2023-07-20T12:49:38;26.40;47.00
75161;DHT22;67232;50.096;8.716;2023-07-20T12:52:10;26.50;47.80
75161;DHT22;67232;50.096;8.716;2023-07-20T12:54:38;26.40;46.90
75161;DHT22;67232;50.096;8.716;2023-07-20T12:57:06;26.40;47.00
75161;DHT22;67232;50.096;8.716;2023-07-20T12:59:32;26.50;46.20
75161;DHT22;67232;50.096;8.716;2023-07-20T13:02:01;26.60;46.10
75161;DHT22;67232;50.096;8.716;2023-07-20T13:04:29;26.80;45.40
75161;DHT22;67232;50.096;8.716;2023-07-20T13:06:55;26.80;45.20
75161;DHT22;67232;50.096;8.716;2023-07-20T13:09:21;26.80;45.90
75161;DHT22;67232;50.096;8.716;2023-07-20T13:11:49;26.90;45.00
75161;DHT22;67232;50.096;8.716;2023-07-20T13:14:14;26.80;45.00
75161;DHT22;67232;50.096;8.716;2023-07-20T13:16:42;26.80;45.70
75161;DHT22;67232;50.096;8.716;2023-07-20T13:19:12;26.60;45.10
75161;DHT22;67232;50.096;8.716;2023-07-20T13:21:38;26.40;45.60
75161;DHT22;67232;50.096;8.716;2023-07-20T13:24:05;26.40;45.80
75161;DHT22;67232;50.096;8.716;2023-07-20T13:26:31;26.40;46.80
75161;DHT22;67232;50.096;8.716;2023-07-20T13:28:56;26.40;46.10
75161;DHT22;67232;50.096;8.716;2023-07-20T13:31:22;26.40;46.00
75161;DHT22;67232;50.096;8.716;2023-07-20T13:33:50;26.60;46.00
75161;DHT22;67232;50.096;8.716;2023-07-20T13:36:19;26.90;45.00
75161;DHT22;67232;50.096;8.716;2023-07-20T13:38:48;27.00;45.20
75161;DHT22;67232;50.096;8.716;2023-07-20T13:41:14;27.20;45.00
75161;DHT22;67232;50.096;8.716;2023-07-20T13:43:41;27.40;45.20
75161;DHT22;67232;50.096;8.716;2023-07-20T13:46:07;27.40;44.60
75161;DHT22;67232;50.096;8.716;2023-07-20T13:48:35;27.30;44.50
75161;DHT22;67232;50.096;8.716;2023-07-20T13:51:00;27.10;43.30
75161;DHT22;67232;50.096;8.716;2023-07-20T13:53:26;27.00;43.30
75161;DHT22;67232;50.096;8.716;2023-07-20T13:55:53;26.80;43.50
75161;DHT22;67232;50.096;8.716;2023-07-20T13:58:18;26.70;44.30
75161;DHT22;67232;50.096;8.716;2023-07-20T14:00:44;26.70;44.60
75161;DHT22;67232;50.096;8.716;2023-07-20T14:03:09;26.70;44.70
75161;DHT22;67232;50.096;8.716;2023-07-20T14:05:37;26.70;45.00
75161;DHT22;67232;50.096;8.716;2023-07-20T14:08:03;26.90;44.20
75161;DHT22;67232;50.096;8.716;2023-07-20T14:10:28;26.90;43.20
75161;DHT22;67232;50.096;8.716;2023-07-20T14:12:54;27.00;42.80
75161;DHT22;67232;50.096;8.716;2023-07-20T14:15:19;27.20;42.00
75161;DHT22;67232;50.096;8.716;2023-07-20T14:17:45;27.10;42.70
75161;DHT22;67232;50.096;8.716;2023-07-20T14:20:13;27.10;42.10
75161;DHT22;67232;50.096;8.716;2023-07-20T14:22:39;27.20;42.80
75161;DHT22;67232;50.096;8.716;2023-07-20T14:25:04;27.20;43.20
75161;DHT22;67232;50.096;8.716;2023-07-20T14:27:30;27.10;42.90
75161;DHT22;67232;50.096;8.716;2023-07-20T14:29:55;27.10;43.10
75161;DHT22;67232;50.096;8.716;2023-07-20T14:32:23;27.10;42.20
75161;DHT22;67232;50.096;8.716;2023-07-20T14:34:51;27.10;41.50
75161;DHT22;67232;50.096;8.716;2023-07-20T14:37:17;27.10;41.80
75161;DHT22;67232;50.096;8.716;2023-07-20T14:39:42;27.00;42.20
75161;DHT22;67232;50.096;8.716;2023-07-20T14:42:10;27.00;41.90
75161;DHT22;67232;50.096;8.716;2023-07-20T14:44:36;27.10;41.30
75161;DHT22;67232;50.096;8.716;2023-07-20T14:47:01;27.10;41.50
75161;DHT22;67232;50.096;8.716;2023-07-20T14:49:29;26.90;41.80
75161;DHT22;67232;50.096;8.716;2023-07-20T14:51:57;26.90;41.90
75161;DHT22;67232;50.096;8.716;2023-07-20T14:54:22;26.90;41.90
75161;DHT22;67232;50.096;8.716;2023-07-20T14:56:53;27.10;41.20
75161;DHT22;67232;50.096;8.716;2023-07-20T14:59:22;27.00;41.30
75161;DHT22;67232;50.096;8.716;2023-07-20T15:01:47;27.00;41.00
75161;DHT22;67232;50.096;8.716;2023-07-20T15:04:14;26.80;41.80
75161;DHT22;67232;50.096;8.716;2023-07-20T15:06:42;26.80;42.10
75161;DHT22;67232;50.096;8.716;2023-07-20T15:09:10;26.80;41.80
75161;DHT22;67232;50.096;8.716;2023-07-20T15:11:36;26.80;41.80
75161;DHT22;67232;50.096;8.716;2023-07-20T15:14:02;26.70;42.40
75161;DHT22;67232;50.096;8.716;2023-07-20T15:16:28;26.60;42.00
75161;DHT22;67232;50.096;8.716;2023-07-20T15:18:53;26.70;42.00
75161;DHT22;67232;50.096;8.716;2023-07-20T15:21:21;26.80;41.80
75161;DHT22;67232;50.096;8.716;2023-07-20T15:23:49;26.70;42.00
75161;DHT22;67232;50.096;8.716;2023-07-20T15:26:17;26.80;41.80
75161;DHT22;67232;50.096;8.716;2023-07-20T15:28:45;26.80;41.90
75161;DHT22;67232;50.096;8.716;2023-07-20T15:31:13;26.60;41.90
75161;DHT22;67232;50.096;8.716;2023-07-20T15:33:38;26.60;41.30
75161;DHT22;67232;50.096;8.716;2023-07-20T15:36:04;26.60;41.40
75161;DHT22;67232;50.096;8.716;2023-07-20T15:38:31;26.60;41.30
75161;DHT22;67232;50.096;8.716;2023-07-20T15:40:56;26.60;41.40
75161;DHT22;67232;50.096;8.716;2023-07-20T15:43:25;26.60;41.40
75161;DHT22;67232;50.096;8.716;2023-07-20T15:46:07;26.50;42.10
75161;DHT22;67232;50.096;8.716;2023-07-20T15:48:47;26.40;43.00